createdAt,value
2017-12-20T00:00:09.211Z,6.60
2017-12-20T00:02:36.767Z,6.50
2017-12-20T00:05:04.324Z,6.50
2017-12-20T00:07:31.921Z,6.50
2017-12-20T00:09:59.489Z,6.60
2017-12-20T00:12:27.071Z,6.60
2017-12-20T00:14:54.655Z,6.60
2017-12-20T00:17:22.256Z,6.70
2017-12-20T00:19:49.925Z,6.60
2017-12-20T00:22:17.535Z,6.50
2017-12-20T00:24:45.252Z,6.40
2017-12-20T00:27:12.920Z,6.50
2017-12-20T00:29:40.496Z,6.60
2017-12-20T00:32:08.101Z,6.70
2017-12-20T00:34:35.681Z,6.70
2017-12-20T00:37:03.358Z,6.60
2017-12-20T00:39:30.971Z,6.70
2017-12-20T00:41:58.520Z,6.60
2017-12-20T00:44:26.750Z,6.50
2017-12-20T00:46:54.389Z,6.70
2017-12-20T00:49:22.817Z,6.80
2017-12-20T00:51:50.452Z,6.80
2017-12-20T00:54:18.095Z,6.80
2017-12-20T00:56:45.931Z,6.90
2017-12-20T00:59:13.611Z,7.00
2017-12-20T01:01:41.161Z,7.00
2017-12-20T01:04:08.750Z,6.90
2017-12-20T01:06:37.088Z,6.90
2017-12-20T01:09:04.747Z,6.90
2017-12-20T01:11:32.287Z,6.90
2017-12-20T01:13:59.869Z,6.90
2017-12-20T01:16:27.447Z,7.00
2017-12-20T01:18:55.040Z,6.90
2017-12-20T01:21:22.617Z,6.90
2017-12-20T01:23:50.211Z,6.90
2017-12-20T01:26:17.793Z,7.00
2017-12-20T01:28:45.498Z,6.90
2017-12-20T01:31:13.180Z,6.70
2017-12-20T01:33:41.570Z,6.60
2017-12-20T01:36:09.882Z,6.70
2017-12-20T01:38:37.510Z,6.70
2017-12-20T01:41:05.164Z,6.70
2017-12-20T01:43:33.572Z,6.70
2017-12-20T01:46:01.926Z,6.70
2017-12-20T01:48:29.534Z,6.70
2017-12-20T01:50:57.218Z,6.70
2017-12-20T01:53:24.863Z,6.70
2017-12-20T01:55:52.537Z,6.60
2017-12-20T01:58:20.184Z,6.60
2017-12-20T02:00:47.880Z,6.60
2017-12-20T02:03:15.540Z,6.60
2017-12-20T02:05:43.176Z,6.70
2017-12-20T02:08:10.928Z,6.70
2017-12-20T02:10:38.484Z,6.70
2017-12-20T02:13:06.153Z,6.70
2017-12-20T02:15:34.089Z,6.70
2017-12-20T02:18:01.674Z,6.70
2017-12-20T02:20:29.287Z,6.70
2017-12-20T02:22:56.973Z,6.70
2017-12-20T02:25:24.599Z,6.80
2017-12-20T02:27:52.232Z,6.80
2017-12-20T02:30:19.875Z,6.70
2017-12-20T02:32:47.413Z,6.60
2017-12-20T02:35:15.043Z,6.60
2017-12-20T02:37:43.515Z,6.50
2017-12-20T02:40:11.090Z,6.60
2017-12-20T02:42:38.716Z,6.70
2017-12-20T02:45:06.375Z,6.60
2017-12-20T02:47:34.068Z,6.60
2017-12-20T02:50:01.662Z,6.70
2017-12-20T02:52:30.109Z,6.60
2017-12-20T02:54:57.686Z,6.50
2017-12-20T02:57:25.276Z,6.50
2017-12-20T02:59:52.867Z,6.60
2017-12-20T03:02:20.518Z,6.60
2017-12-20T03:04:48.150Z,6.60
2017-12-20T03:07:16.665Z,6.60
2017-12-20T03:09:44.300Z,6.60
2017-12-20T03:12:11.984Z,6.70
2017-12-20T03:14:39.651Z,6.70
2017-12-20T03:17:07.240Z,6.60
2017-12-20T03:19:34.865Z,6.60
2017-12-20T03:22:02.453Z,6.50
2017-12-20T03:24:30.105Z,6.60
2017-12-20T03:26:57.726Z,6.60
2017-12-20T03:29:25.356Z,6.60
2017-12-20T03:31:52.978Z,6.70
2017-12-20T03:34:20.606Z,6.70
2017-12-20T03:36:48.268Z,6.80
2017-12-20T03:39:16.594Z,6.90
2017-12-20T03:41:44.166Z,6.90
2017-12-20T03:44:11.791Z,6.90
2017-12-20T03:46:39.376Z,6.80
2017-12-20T03:49:07.793Z,6.80
2017-12-20T03:51:35.378Z,6.80
2017-12-20T03:54:03.819Z,6.80
2017-12-20T03:56:31.477Z,6.80
2017-12-20T03:58:59.048Z,6.80
2017-12-20T04:01:27.455Z,6.70
2017-12-20T04:03:55.087Z,6.70
2017-12-20T04:06:24.079Z,6.60
2017-12-20T04:08:52.446Z,6.60
2017-12-20T04:11:20.040Z,6.60
2017-12-20T04:13:47.947Z,6.60
2017-12-20T04:16:15.580Z,6.70
2017-12-20T04:18:43.223Z,6.70
2017-12-20T04:21:10.849Z,6.80
2017-12-20T04:23:38.410Z,6.80
2017-12-20T04:26:06.024Z,6.70
2017-12-20T04:28:33.603Z,6.80
2017-12-20T04:31:01.970Z,6.80
2017-12-20T04:33:29.536Z,6.80
2017-12-20T04:35:57.124Z,6.80
2017-12-20T04:38:24.766Z,6.80
2017-12-20T04:40:52.353Z,6.80
2017-12-20T04:43:19.944Z,6.80
2017-12-20T04:45:47.573Z,6.80
2017-12-20T04:48:15.184Z,6.70
2017-12-20T04:50:42.796Z,6.80
2017-12-20T04:53:10.401Z,6.80
2017-12-20T04:55:38.010Z,6.80
2017-12-20T04:58:05.639Z,6.80
2017-12-20T05:00:33.245Z,6.80
2017-12-20T05:03:00.898Z,6.80
2017-12-20T05:05:28.561Z,6.80
2017-12-20T05:07:56.099Z,6.80
2017-12-20T05:10:23.685Z,6.70
2017-12-20T05:12:51.451Z,6.70
2017-12-20T05:15:19.067Z,6.50
2017-12-20T05:17:46.624Z,6.60
2017-12-20T05:20:14.298Z,6.60
2017-12-20T05:22:41.885Z,6.60
2017-12-20T05:25:09.512Z,6.60
2017-12-20T05:27:37.126Z,6.60
2017-12-20T05:30:04.709Z,6.60
2017-12-20T05:32:32.289Z,6.50
2017-12-20T05:34:59.897Z,6.50
2017-12-20T05:37:28.320Z,6.40
2017-12-20T05:39:55.950Z,6.40
2017-12-20T05:42:23.733Z,6.40
2017-12-20T05:44:52.079Z,6.40
2017-12-20T05:47:19.714Z,6.40
2017-12-20T05:49:47.306Z,6.40
2017-12-20T05:52:15.301Z,6.40
2017-12-20T05:54:42.862Z,6.40
2017-12-20T05:57:11.192Z,6.30
2017-12-20T05:59:38.790Z,6.30
2017-12-20T06:02:06.424Z,6.40
2017-12-20T06:04:34.039Z,6.40
2017-12-20T06:07:01.715Z,6.40
2017-12-20T06:09:29.366Z,6.30
2017-12-20T06:11:56.966Z,6.40
2017-12-20T06:14:24.644Z,6.40
2017-12-20T06:16:52.263Z,6.50
2017-12-20T06:19:19.873Z,6.40
2017-12-20T06:21:47.453Z,6.50
2017-12-20T06:24:15.132Z,6.40
2017-12-20T06:26:42.727Z,6.40
2017-12-20T06:29:10.475Z,6.50
2017-12-20T06:31:38.099Z,6.50
2017-12-20T06:34:05.678Z,6.60
2017-12-20T06:36:33.425Z,6.60
2017-12-20T06:39:01.086Z,6.60
2017-12-20T06:41:28.657Z,6.60
2017-12-20T06:43:56.295Z,6.50
2017-12-20T06:46:24.745Z,6.50
2017-12-20T06:48:52.372Z,6.50
2017-12-20T06:51:19.953Z,6.50
2017-12-20T06:53:47.795Z,6.60
2017-12-20T06:56:15.350Z,6.70
2017-12-20T06:58:42.975Z,6.70
2017-12-20T07:01:10.845Z,6.70
2017-12-20T07:03:38.469Z,6.80
2017-12-20T07:06:06.120Z,6.60
2017-12-20T07:08:33.690Z,6.70
2017-12-20T07:11:01.289Z,6.70
2017-12-20T07:13:28.939Z,6.70
2017-12-20T07:15:56.602Z,6.70
2017-12-20T07:18:24.202Z,6.80
2017-12-20T07:20:52.095Z,6.90
2017-12-20T07:23:19.656Z,6.90
2017-12-20T07:25:48.195Z,6.80
2017-12-20T07:28:16.586Z,6.60
2017-12-20T07:30:44.364Z,6.50
2017-12-20T07:33:11.988Z,6.50
2017-12-20T07:35:40.348Z,6.70
2017-12-20T07:38:07.946Z,6.70
2017-12-20T07:40:35.560Z,6.80
2017-12-20T07:43:03.202Z,6.90
2017-12-20T07:45:30.773Z,6.70
2017-12-20T07:47:58.543Z,6.70
2017-12-20T07:50:26.167Z,6.60
2017-12-20T07:52:53.808Z,6.60
2017-12-20T07:55:22.175Z,6.60
2017-12-20T07:57:49.750Z,6.60
2017-12-20T08:00:17.362Z,6.50
2017-12-20T08:02:44.986Z,6.50
2017-12-20T08:05:12.580Z,6.60
2017-12-20T08:07:40.204Z,6.70
2017-12-20T08:10:07.786Z,6.80
2017-12-20T08:12:35.453Z,6.80
2017-12-20T08:15:03.089Z,6.80
2017-12-20T08:17:30.773Z,6.80
2017-12-20T08:19:58.441Z,6.80
2017-12-20T08:22:26.060Z,6.90
2017-12-20T08:24:54.470Z,7.10
2017-12-20T08:27:22.212Z,7.10
2017-12-20T08:29:49.826Z,7.20
2017-12-20T08:32:17.459Z,7.20
2017-12-20T08:34:45.051Z,7.20
2017-12-20T08:37:13.591Z,7.30
2017-12-20T08:39:41.185Z,7.40
2017-12-20T08:42:08.867Z,7.30
2017-12-20T08:44:36.500Z,7.40
2017-12-20T08:47:04.119Z,7.40
2017-12-20T08:49:31.891Z,7.30
2017-12-20T08:51:59.480Z,7.40
2017-12-20T08:54:27.073Z,7.40
2017-12-20T08:56:54.704Z,7.50
2017-12-20T08:59:22.391Z,7.50
2017-12-20T09:01:50.002Z,7.50
2017-12-20T09:04:18.759Z,7.50
2017-12-20T09:06:47.118Z,7.40
2017-12-20T09:09:15.563Z,7.50
2017-12-20T09:11:43.121Z,7.50
2017-12-20T09:14:10.786Z,7.50
2017-12-20T09:16:38.411Z,7.40
2017-12-20T09:19:06.075Z,7.50
2017-12-20T09:21:34.762Z,7.50
2017-12-20T09:24:03.134Z,7.60
2017-12-20T09:26:31.542Z,7.60
2017-12-20T09:28:59.256Z,7.60
2017-12-20T09:31:26.924Z,7.60
2017-12-20T09:33:54.554Z,7.60
2017-12-20T09:36:22.159Z,7.60
2017-12-20T09:38:49.882Z,7.60
2017-12-20T09:41:17.494Z,7.60
2017-12-20T09:43:45.073Z,7.50
2017-12-20T09:46:12.799Z,7.50
2017-12-20T09:48:40.353Z,7.50
2017-12-20T09:51:08.762Z,7.50
2017-12-20T09:53:37.124Z,7.60
2017-12-20T09:56:04.725Z,7.60
2017-12-20T09:58:32.592Z,7.40
2017-12-20T10:01:00.330Z,7.50
2017-12-20T10:03:27.950Z,7.50
2017-12-20T10:05:55.545Z,7.50
2017-12-20T10:08:23.890Z,7.50
2017-12-20T10:10:51.537Z,7.50
2017-12-20T10:13:20.091Z,7.60
2017-12-20T10:15:47.729Z,7.60
2017-12-20T10:18:15.318Z,7.60
2017-12-20T10:20:42.941Z,7.50
2017-12-20T10:23:10.610Z,7.60
2017-12-20T10:25:38.329Z,7.60
2017-12-20T10:28:05.905Z,7.60
2017-12-20T10:30:33.546Z,7.50
2017-12-20T10:33:01.179Z,7.60
2017-12-20T10:35:28.836Z,7.70
2017-12-20T10:37:56.408Z,7.90
2017-12-20T10:40:24.090Z,7.90
2017-12-20T10:42:51.769Z,7.90
2017-12-20T10:45:19.357Z,7.90
2017-12-20T10:47:47.123Z,7.90
2017-12-20T10:50:14.773Z,7.70
2017-12-20T10:52:42.414Z,7.60
2017-12-20T10:55:10.077Z,7.60
2017-12-20T10:57:37.652Z,7.60
2017-12-20T11:00:05.284Z,7.60
2017-12-20T11:02:34.487Z,7.60
2017-12-20T11:05:02.068Z,7.60
2017-12-20T11:07:29.699Z,7.60
2017-12-20T11:09:57.350Z,7.60
2017-12-20T11:12:25.053Z,7.70
2017-12-20T11:14:52.617Z,7.70
2017-12-20T11:17:20.162Z,7.90
2017-12-20T11:19:47.775Z,7.90
2017-12-20T11:22:16.127Z,8.00
2017-12-20T11:24:43.683Z,8.00
2017-12-20T11:27:11.244Z,7.90
2017-12-20T11:29:39.600Z,8.00
2017-12-20T11:32:07.207Z,8.00
2017-12-20T11:34:35.587Z,8.20
2017-12-20T11:37:03.142Z,8.10
2017-12-20T11:39:31.508Z,8.10
2017-12-20T11:41:59.908Z,8.10
2017-12-20T11:44:28.857Z,8.10
2017-12-20T11:46:57.484Z,8.20
2017-12-20T11:49:25.847Z,8.20
2017-12-20T11:51:53.524Z,8.20
2017-12-20T11:54:21.783Z,8.20
2017-12-20T11:56:49.459Z,8.10
2017-12-20T11:59:17.789Z,7.90
2017-12-20T12:01:45.480Z,7.90
2017-12-20T12:04:13.153Z,8.00
2017-12-20T12:06:40.772Z,8.10
2017-12-20T12:09:08.417Z,8.30
2017-12-20T12:11:36.146Z,8.20
2017-12-20T12:14:03.851Z,8.20
2017-12-20T12:16:31.584Z,8.20
2017-12-20T12:18:59.427Z,8.30
2017-12-20T12:21:27.115Z,8.30
2017-12-20T12:23:54.976Z,8.30
2017-12-20T12:26:22.616Z,8.30
2017-12-20T12:28:50.671Z,8.30
2017-12-20T12:31:18.489Z,8.20
2017-12-20T12:33:46.130Z,8.30
2017-12-20T12:36:13.694Z,8.40
2017-12-20T12:38:41.321Z,8.50
2017-12-20T12:41:08.971Z,8.50
2017-12-20T12:43:36.893Z,8.30
2017-12-20T12:46:04.686Z,8.30
2017-12-20T12:48:32.565Z,8.20
2017-12-20T12:51:00.190Z,8.00
2017-12-20T12:53:27.872Z,7.90
2017-12-20T12:55:55.514Z,7.70
2017-12-20T12:58:23.233Z,7.80
2017-12-20T13:00:51.056Z,7.90
2017-12-20T13:03:18.777Z,7.90
2017-12-20T13:05:46.464Z,8.00
2017-12-20T13:08:14.173Z,7.90
2017-12-20T13:10:41.900Z,7.80
2017-12-20T13:13:10.008Z,7.90
2017-12-20T13:15:37.642Z,7.90
2017-12-20T13:18:06.252Z,7.90
2017-12-20T13:20:33.886Z,7.90
2017-12-20T13:23:02.351Z,8.10
2017-12-20T13:25:29.957Z,8.10
2017-12-20T13:27:57.568Z,8.00
2017-12-20T13:30:25.351Z,8.10
2017-12-20T13:32:53.015Z,8.00
2017-12-20T13:35:20.707Z,8.10
2017-12-20T13:37:48.292Z,8.00
2017-12-20T13:40:15.942Z,8.00
2017-12-20T13:42:43.654Z,8.10
2017-12-20T13:45:11.287Z,8.10
2017-12-20T13:47:39.659Z,8.10
2017-12-20T13:50:07.209Z,8.10
2017-12-20T13:52:34.892Z,8.00
2017-12-20T13:55:02.472Z,8.10
2017-12-20T13:57:30.024Z,8.00
2017-12-20T13:59:57.590Z,8.10
2017-12-20T14:02:25.240Z,8.20
2017-12-20T14:04:52.940Z,8.30
2017-12-20T14:07:21.503Z,8.20
2017-12-20T14:09:49.045Z,8.30
2017-12-20T14:12:16.676Z,8.20
2017-12-20T14:14:44.254Z,8.20
2017-12-20T14:17:11.926Z,8.10
2017-12-20T14:19:39.589Z,8.10
2017-12-20T14:22:07.191Z,8.10
2017-12-20T14:24:34.883Z,8.20
2017-12-20T14:27:02.927Z,8.00
2017-12-20T14:29:30.573Z,8.00
2017-12-20T14:31:59.098Z,8.10
2017-12-20T14:34:26.753Z,8.10
2017-12-20T14:36:55.169Z,8.10
2017-12-20T14:39:22.713Z,8.00
2017-12-20T14:41:50.283Z,8.00
2017-12-20T14:44:17.972Z,8.00
2017-12-20T14:46:45.624Z,7.90
2017-12-20T14:49:14.023Z,7.80
2017-12-20T14:51:41.720Z,7.80
2017-12-20T14:54:09.366Z,7.90
2017-12-20T14:56:37.082Z,7.90
2017-12-20T14:59:05.531Z,7.90
2017-12-20T15:01:33.124Z,7.90
2017-12-20T15:04:00.818Z,8.00
2017-12-20T15:06:29.607Z,7.80
2017-12-20T15:08:57.319Z,7.80
2017-12-20T15:11:24.974Z,7.90
2017-12-20T15:13:52.724Z,7.90
2017-12-20T15:16:20.528Z,8.00
2017-12-20T15:18:48.182Z,8.00
2017-12-20T15:21:16.703Z,8.10
2017-12-20T15:23:44.610Z,8.10
2017-12-20T15:26:12.271Z,8.10
2017-12-20T15:28:40.686Z,8.00
2017-12-20T15:31:09.212Z,8.00
2017-12-20T15:33:36.770Z,8.00
2017-12-20T15:36:04.452Z,8.00
2017-12-20T15:38:32.075Z,8.10
2017-12-20T15:40:59.824Z,8.10
2017-12-20T15:43:27.534Z,8.10
2017-12-20T15:45:55.222Z,8.00
2017-12-20T15:48:22.839Z,8.00
2017-12-20T15:50:50.560Z,8.00
2017-12-20T15:53:18.182Z,8.00
2017-12-20T15:55:45.780Z,7.90
2017-12-20T15:58:13.470Z,8.00
2017-12-20T16:00:41.859Z,8.10
2017-12-20T16:03:09.544Z,8.10
2017-12-20T16:05:37.166Z,8.10
2017-12-20T16:08:05.550Z,8.20
2017-12-20T16:10:33.273Z,8.20
2017-12-20T16:13:00.863Z,8.20
2017-12-20T16:15:29.216Z,8.10
2017-12-20T16:17:56.792Z,8.10
2017-12-20T16:20:24.373Z,7.90
2017-12-20T16:22:51.959Z,8.00
2017-12-20T16:25:19.522Z,8.10
2017-12-20T16:27:47.121Z,8.10
2017-12-20T16:30:14.744Z,8.10
2017-12-20T16:32:42.283Z,8.10
2017-12-20T16:35:09.850Z,8.20
2017-12-20T16:37:37.447Z,8.20
2017-12-20T16:40:05.146Z,8.20
2017-12-20T16:42:33.618Z,8.30
2017-12-20T16:45:01.311Z,8.20
2017-12-20T16:47:29.014Z,8.30
2017-12-20T16:49:56.917Z,8.40
2017-12-20T16:52:24.595Z,8.40
2017-12-20T16:54:52.307Z,8.20
2017-12-20T16:57:19.908Z,8.20
2017-12-20T16:59:48.482Z,8.20
2017-12-20T17:02:16.332Z,8.20
2017-12-20T17:04:44.130Z,8.10
2017-12-20T17:07:11.938Z,8.10
2017-12-20T17:09:39.911Z,8.10
2017-12-20T17:12:08.424Z,8.00
2017-12-20T17:14:37.092Z,8.10
2017-12-20T17:17:04.915Z,8.10
2017-12-20T17:19:33.000Z,8.10
2017-12-20T17:22:00.722Z,8.00
2017-12-20T17:24:28.613Z,8.00
2017-12-20T17:26:56.471Z,8.00
2017-12-20T17:29:24.242Z,8.00
2017-12-20T17:31:51.821Z,8.00
2017-12-20T17:34:19.480Z,7.90
2017-12-20T17:36:47.403Z,7.90
2017-12-20T17:39:15.072Z,7.90
2017-12-20T17:41:42.833Z,7.90
2017-12-20T17:44:11.340Z,7.80
2017-12-20T17:46:38.950Z,7.80
2017-12-20T17:49:06.646Z,7.80
2017-12-20T17:51:35.001Z,7.90
2017-12-20T17:54:02.667Z,7.80
2017-12-20T17:56:31.769Z,7.70
2017-12-20T17:59:00.153Z,7.70
2017-12-20T18:01:27.874Z,7.70
2017-12-20T18:03:55.678Z,7.70
2017-12-20T18:06:23.342Z,7.50
2017-12-20T18:08:50.925Z,7.50
2017-12-20T18:11:18.647Z,7.60
2017-12-20T18:13:46.387Z,7.60
2017-12-20T18:16:13.952Z,7.70
2017-12-20T18:18:42.757Z,7.50
2017-12-20T18:21:10.663Z,7.60
2017-12-20T18:23:39.226Z,7.50
2017-12-20T18:26:07.723Z,7.50
2017-12-20T18:28:35.386Z,7.50
2017-12-20T18:31:03.085Z,7.50
2017-12-20T18:33:30.694Z,7.50
2017-12-20T18:35:59.200Z,7.60
2017-12-20T18:38:27.567Z,7.60
2017-12-20T18:40:55.995Z,7.70
2017-12-20T18:43:23.610Z,7.70
2017-12-20T18:45:51.214Z,7.70
2017-12-20T18:48:18.850Z,7.80
2017-12-20T18:50:46.459Z,7.90
2017-12-20T18:53:14.059Z,7.90
2017-12-20T18:55:41.718Z,7.90
2017-12-20T18:58:09.404Z,7.90
2017-12-20T19:00:37.004Z,7.90
2017-12-20T19:03:04.651Z,8.00
2017-12-20T19:05:32.208Z,7.90
2017-12-20T19:07:59.913Z,7.80
2017-12-20T19:10:27.571Z,7.80
2017-12-20T19:12:56.293Z,7.80
2017-12-20T19:15:23.937Z,7.80
2017-12-20T19:17:51.504Z,7.80
2017-12-20T19:20:19.168Z,7.80
2017-12-20T19:22:46.837Z,7.80
2017-12-20T19:25:14.593Z,7.90
2017-12-20T19:27:42.166Z,7.90
2017-12-20T19:30:09.781Z,7.90
2017-12-20T19:32:37.388Z,7.90
2017-12-20T19:35:04.971Z,7.90
2017-12-20T19:37:32.559Z,7.90
2017-12-20T19:40:00.216Z,7.90
2017-12-20T19:42:27.815Z,7.90
2017-12-20T19:44:55.359Z,7.80
2017-12-20T19:47:22.975Z,7.80
2017-12-20T19:49:50.607Z,7.80
2017-12-20T19:52:18.240Z,7.70
2017-12-20T19:54:45.835Z,7.70
2017-12-20T19:57:13.401Z,7.70
2017-12-20T19:59:41.030Z,7.60
2017-12-20T20:02:08.667Z,7.70
2017-12-20T20:04:36.306Z,7.60
2017-12-20T20:07:03.874Z,7.70
2017-12-20T20:09:32.489Z,7.80
2017-12-20T20:12:00.061Z,7.80
2017-12-20T20:14:27.670Z,7.70
2017-12-20T20:16:56.047Z,7.70
2017-12-20T20:19:23.701Z,7.70
2017-12-20T20:21:52.057Z,7.90
2017-12-20T20:24:20.439Z,7.80
2017-12-20T20:26:49.808Z,7.80
2017-12-20T20:29:17.400Z,7.80
2017-12-20T20:31:45.276Z,7.80
2017-12-20T20:34:12.897Z,7.90
2017-12-20T20:36:40.532Z,7.90
2017-12-20T20:39:08.108Z,7.90
2017-12-20T20:41:35.746Z,7.90
2017-12-20T20:44:04.157Z,7.90
2017-12-20T20:46:31.779Z,7.90
2017-12-20T20:49:00.249Z,7.90
2017-12-20T20:51:27.921Z,7.90
2017-12-20T20:53:55.520Z,7.90
2017-12-20T20:56:23.113Z,8.00
2017-12-20T20:58:50.802Z,8.00
2017-12-20T21:01:18.440Z,8.00
2017-12-20T21:03:46.159Z,8.00
2017-12-20T21:06:13.766Z,8.00
2017-12-20T21:08:42.199Z,8.00
2017-12-20T21:11:09.794Z,8.10
2017-12-20T21:13:38.229Z,8.00
2017-12-20T21:16:06.044Z,8.00
2017-12-20T21:18:34.443Z,8.00
2017-12-20T21:21:02.093Z,8.00
2017-12-20T21:23:29.737Z,8.00
2017-12-20T21:25:57.423Z,8.00
2017-12-20T21:28:25.003Z,8.00
2017-12-20T21:30:52.622Z,8.00
2017-12-20T21:33:20.996Z,8.00
2017-12-20T21:35:49.377Z,8.00
2017-12-20T21:38:16.982Z,8.00
2017-12-20T21:40:44.593Z,8.00
2017-12-20T21:43:12.920Z,8.10
2017-12-20T21:45:40.495Z,8.10
2017-12-20T21:48:08.149Z,8.10
2017-12-20T21:50:35.714Z,8.20
2017-12-20T21:53:03.353Z,8.20
2017-12-20T21:55:30.927Z,8.20
2017-12-20T21:57:58.555Z,8.10
2017-12-20T22:00:26.211Z,8.10
2017-12-20T22:02:53.797Z,8.10
2017-12-20T22:05:21.476Z,8.00
2017-12-20T22:07:49.185Z,8.00
2017-12-20T22:10:16.823Z,7.90
2017-12-20T22:12:44.461Z,8.00
2017-12-20T22:15:12.065Z,7.90
2017-12-20T22:17:39.779Z,8.00
2017-12-20T22:20:07.418Z,7.90
2017-12-20T22:22:34.994Z,8.00
2017-12-20T22:25:02.632Z,7.90
2017-12-20T22:27:30.215Z,7.90
2017-12-20T22:29:57.826Z,7.90
2017-12-20T22:32:25.456Z,7.90
2017-12-20T22:34:53.203Z,8.00
2017-12-20T22:37:20.830Z,8.00
2017-12-20T22:39:49.260Z,8.00
2017-12-20T22:42:16.897Z,8.00
2017-12-20T22:44:45.369Z,7.90
2017-12-20T22:47:12.956Z,7.90
2017-12-20T22:49:40.623Z,8.00
2017-12-20T22:52:08.280Z,7.90
2017-12-20T22:54:35.886Z,7.90
2017-12-20T22:57:03.456Z,8.00
2017-12-20T22:59:31.104Z,8.00
2017-12-20T23:01:58.715Z,8.00
2017-12-20T23:04:27.048Z,8.10
2017-12-20T23:06:54.881Z,8.10
2017-12-20T23:09:22.580Z,8.00
2017-12-20T23:11:50.161Z,8.00
2017-12-20T23:14:18.157Z,8.00
2017-12-20T23:16:45.757Z,8.10
2017-12-20T23:19:13.595Z,8.00
2017-12-20T23:21:41.538Z,8.10
2017-12-20T23:24:09.290Z,8.10
2017-12-20T23:26:37.648Z,8.20
2017-12-20T23:29:05.246Z,8.20
2017-12-20T23:31:32.876Z,8.10
2017-12-20T23:34:01.229Z,8.20
2017-12-20T23:36:28.847Z,8.20
2017-12-20T23:38:56.458Z,8.20
2017-12-20T23:41:24.153Z,8.20
2017-12-20T23:43:51.949Z,8.30
2017-12-20T23:46:19.575Z,8.20
2017-12-20T23:48:47.186Z,8.30
2017-12-20T23:51:15.128Z,8.30
2017-12-20T23:53:42.741Z,8.30
2017-12-20T23:56:10.315Z,8.30
2017-12-20T23:58:38.683Z,8.40
